Time;durP1;ratioP1;P1;durP2;ratioP2;P2;SDS_P1;SDS_P2;PMS_P1;PMS_P2;Temp;Humidity;BMP_temperature;BMP_pressure;BME280_temperature;BME280_humidity;BME280_pressure;Samples;Min_cycle;Max_cycle;Signal;HPM_P1;HPM_P2
2022/05/31 00:00:23;;;;;;;8.50;3.70;;;8.70;99.90;;;;;;5016191;28;20109;-80
2022/05/31 00:02:50;;;;;;;6.17;3.37;;;8.70;99.90;;;;;;5016108;28;20037;-80
2022/05/31 00:05:16;;;;;;;4.90;3.50;;;8.60;99.90;;;;;;5014930;28;20499;-80
2022/05/31 00:07:42;;;;;;;5.13;3.23;;;8.60;99.90;;;;;;5016123;28;20034;-80
2022/05/31 00:10:11;;;;;;;8.63;3.63;;;8.50;99.90;;;;;;5015514;28;20497;-80
2022/05/31 00:12:38;;;;;;;6.00;3.57;;;8.50;99.90;;;;;;5015079;28;20025;-80
2022/05/31 00:15:05;;;;;;;5.13;3.40;;;8.40;99.90;;;;;;5014930;28;20026;-80
2022/05/31 00:17:30;;;;;;;5.17;3.03;;;8.40;99.90;;;;;;5015156;28;20026;-80
2022/05/31 00:19:57;;;;;;;5.53;3.53;;;8.40;99.90;;;;;;5015315;28;20382;-80
2022/05/31 00:22:24;;;;;;;6.63;3.53;;;8.40;99.90;;;;;;5014016;28;20474;-80
2022/05/31 00:24:50;;;;;;;3.90;3.03;;;8.40;99.90;;;;;;5015249;28;20495;-80
2022/05/31 00:27:18;;;;;;;4.00;3.03;;;8.30;99.90;;;;;;5015621;28;20030;-80
2022/05/31 00:29:44;;;;;;;5.13;3.30;;;8.30;99.90;;;;;;5015203;28;20080;-80
2022/05/31 00:32:12;;;;;;;4.77;3.27;;;8.30;99.90;;;;;;5015373;28;20057;-80
2022/05/31 00:34:43;;;;;;;5.37;3.17;;;8.20;99.90;;;;;;5016079;28;20022;-81
2022/05/31 00:37:09;;;;;;;4.43;3.30;;;8.20;99.90;;;;;;5015782;28;20050;-80
2022/05/31 00:39:35;;;;;;;8.27;3.70;;;8.20;99.90;;;;;;5015504;28;20022;-80
2022/05/31 00:42:05;;;;;;;8.93;3.50;;;8.20;99.90;;;;;;5015499;28;20022;-80
2022/05/31 00:44:32;;;;;;;6.87;3.67;;;8.20;99.90;;;;;;5015051;28;20026;-80
2022/05/31 00:47:21;;;;;;;6.10;3.43;;;8.10;99.90;;;;;;5014971;28;20032;-80
2022/05/31 00:49:51;;;;;;;4.37;3.30;;;8.10;99.90;;;;;;5015010;28;20026;-80
2022/05/31 00:52:19;;;;;;;4.70;3.10;;;8.10;99.90;;;;;;5013822;28;20084;-80
2022/05/31 00:55:00;;;;;;;5.63;3.20;;;8.10;99.90;;;;;;5030290;28;20022;-80
2022/05/31 00:57:27;;;;;;;6.07;3.40;;;8.10;99.90;;;;;;5013772;28;20026;-80
2022/05/31 01:00:03;;;;;;;4.23;3.20;;;8.10;99.90;;;;;;5015097;28;20443;-80
2022/05/31 01:02:29;;;;;;;4.50;2.77;;;8.00;99.90;;;;;;5014971;28;20029;-80
2022/05/31 01:05:00;;;;;;;5.10;3.07;;;8.00;99.90;;;;;;5015145;28;20081;-80
2022/05/31 01:07:27;;;;;;;5.60;3.20;;;8.00;99.90;;;;;;5015107;28;20113;-80
2022/05/31 01:09:53;;;;;;;6.00;3.40;;;8.00;99.90;;;;;;5014884;28;20033;-80
2022/05/31 01:12:19;;;;;;;4.97;3.50;;;7.90;99.90;;;;;;5014182;28;20026;-80
2022/05/31 01:14:45;;;;;;;3.63;2.70;;;7.90;99.90;;;;;;5015202;28;20026;-80
2022/05/31 01:17:15;;;;;;;5.00;3.10;;;7.90;99.90;;;;;;5014733;28;20090;-80
2022/05/31 01:19:56;;;;;;;5.00;3.40;;;7.90;99.90;;;;;;5015188;28;20068;-80
2022/05/31 01:22:40;;;;;;;3.80;2.97;;;7.90;99.90;;;;;;5014478;28;20025;-80
2022/05/31 01:25:12;;;;;;;4.77;2.93;;;7.80;99.90;;;;;;5014743;28;20026;-80
2022/05/31 01:27:44;;;;;;;6.80;3.40;;;7.90;99.90;;;;;;5014605;28;20026;-80
2022/05/31 01:30:11;;;;;;;4.73;3.03;;;7.90;99.90;;;;;;5014644;28;20095;-80
2022/05/31 01:32:43;;;;;;;3.43;3.07;;;7.90;99.90;;;;;;5013039;28;20458;-80
2022/05/31 01:35:17;;;;;;;4.27;3.17;;;7.80;99.90;;;;;;5013208;28;20379;-80
2022/05/31 01:37:54;;;;;;;6.25;3.13;;;7.90;99.90;;;;;;5014749;28;20403;-80
2022/05/31 01:41:08;;;;;;;8.27;3.33;;;7.90;99.90;;;;;;5014417;28;20069;-80
2022/05/31 01:43:34;;;;;;;5.30;3.30;;;7.90;99.90;;;;;;4953702;29;20412;-80
2022/05/31 01:46:06;;;;;;;5.57;3.17;;;7.90;99.90;;;;;;5007356;28;20037;-80
2022/05/31 01:48:35;;;;;;;5.37;3.07;;;7.90;99.90;;;;;;5013985;28;20498;-80
2022/05/31 01:51:01;;;;;;;5.50;3.30;;;7.90;99.90;;;;;;5012772;28;20026;-80
2022/05/31 01:53:28;;;;;;;4.07;2.90;;;7.90;99.90;;;;;;5014021;28;20033;-80
2022/05/31 01:55:54;;;;;;;4.30;3.30;;;7.90;99.90;;;;;;5013663;28;20029;-80
2022/05/31 01:58:26;;;;;;;4.80;3.07;;;7.90;99.90;;;;;;5013079;28;20018;-80
2022/05/31 02:00:52;;;;;;;7.17;3.60;;;7.90;99.90;;;;;;5014024;28;20022;-80
2022/05/31 02:03:20;;;;;;;7.50;2.97;;;8.00;99.90;;;;;;5013832;28;20025;-80
2022/05/31 02:05:51;;;;;;;2.93;2.63;;;7.90;99.90;;;;;;5013658;28;20030;-80
2022/05/31 02:08:19;;;;;;;3.60;3.10;;;7.90;99.90;;;;;;5014219;28;20048;-80
2022/05/31 02:10:47;;;;;;;3.77;2.80;;;7.90;99.90;;;;;;5013734;28;20104;-80
2022/05/31 02:13:13;;;;;;;5.50;2.63;;;7.80;99.90;;;;;;5013810;28;20038;-80
2022/05/31 02:15:40;;;;;;;5.73;3.30;;;7.80;99.90;;;;;;5012426;28;20025;-80
2022/05/31 02:18:06;;;;;;;4.27;3.07;;;7.80;99.90;;;;;;5013367;28;20135;-80
2022/05/31 02:20:32;;;;;;;5.63;2.90;;;7.80;99.90;;;;;;5013710;28;20076;-80
2022/05/31 02:22:57;;;;;;;8.50;3.43;;;7.80;99.90;;;;;;5028563;28;20413;-80
2022/05/31 02:25:23;;;;;;;4.50;3.20;;;7.70;99.90;;;;;;5013224;28;20105;-80
2022/05/31 02:27:48;;;;;;;4.27;3.03;;;7.70;99.90;;;;;;5012140;28;20022;-80
2022/05/31 02:30:14;;;;;;;6.03;3.40;;;7.70;99.90;;;;;;5013711;28;20018;-80
2022/05/31 02:32:40;;;;;;;5.60;3.77;;;7.70;99.90;;;;;;5013444;28;20525;-80
2022/05/31 02:35:09;;;;;;;8.10;4.40;;;7.70;99.90;;;;;;5013458;28;20030;-80
2022/05/31 02:37:35;;;;;;;6.97;3.77;;;7.70;99.90;;;;;;5028401;28;20026;-80
2022/05/31 02:40:01;;;;;;;4.07;3.23;;;7.70;99.90;;;;;;5011862;28;20129;-80
2022/05/31 02:42:26;;;;;;;4.47;3.40;;;7.70;99.90;;;;;;5013244;28;20473;-80
2022/05/31 02:44:52;;;;;;;3.73;3.13;;;7.70;99.90;;;;;;5013043;28;20073;-80
2022/05/31 02:47:19;;;;;;;5.33;3.27;;;7.70;99.90;;;;;;5013082;28;20502;-80
2022/05/31 02:49:45;;;;;;;6.63;3.10;;;7.70;99.90;;;;;;5011558;28;20050;-80
2022/05/31 02:52:11;;;;;;;4.93;3.00;;;7.70;99.90;;;;;;5011712;28;20402;-80
2022/05/31 02:54:37;;;;;;;4.73;3.23;;;7.70;99.90;;;;;;5012601;28;20025;-80
2022/05/31 02:57:04;;;;;;;3.83;3.00;;;7.70;99.90;;;;;;5013106;28;20475;-80
2022/05/31 02:59:29;;;;;;;5.50;3.13;;;7.70;99.90;;;;;;5012069;28;20018;-80
2022/05/31 03:01:55;;;;;;;6.30;3.20;;;7.80;99.90;;;;;;5012122;28;20028;-80
2022/05/31 03:04:21;;;;;;;8.63;3.20;;;7.80;99.90;;;;;;5011859;28;20080;-80
2022/05/31 03:06:47;;;;;;;6.70;3.10;;;7.80;99.90;;;;;;5012118;28;20030;-80
2022/05/31 03:09:13;;;;;;;6.00;3.53;;;7.80;99.90;;;;;;5015710;28;20040;-80
2022/05/31 03:11:52;;;;;;;4.33;3.00;;;7.80;99.90;;;;;;5016844;28;20022;-81
2022/05/31 03:14:25;;;;;;;7.20;3.33;;;7.80;99.90;;;;;;5016944;28;20022;-81
2022/05/31 03:17:01;;;;;;;5.20;3.13;;;7.80;99.90;;;;;;5016786;28;20121;-80
2022/05/31 03:19:32;;;;;;;6.90;2.97;;;7.90;99.90;;;;;;5016960;28;20073;-81
2022/05/31 03:22:07;;;;;;;6.47;3.07;;;7.90;99.90;;;;;;5017491;28;20034;-81
2022/05/31 03:24:41;;;;;;;6.38;3.08;;;8.00;99.90;;;;;;5017189;28;20014;-81
2022/05/31 03:27:09;;;;;;;4.97;3.20;;;8.00;99.90;;;;;;5015857;28;20040;-81
2022/05/31 03:29:38;;;;;;;3.50;2.80;;;8.00;99.90;;;;;;5015416;28;20030;-80
2022/05/31 03:32:05;;;;;;;6.00;3.13;;;8.00;99.90;;;;;;5015317;28;20033;-80
2022/05/31 03:34:32;;;;;;;5.20;3.10;;;8.00;99.90;;;;;;5016478;28;20017;-81
2022/05/31 03:36:58;;;;;;;6.80;2.73;;;8.00;99.90;;;;;;5015650;28;20022;-80
2022/05/31 03:39:24;;;;;;;5.87;3.13;;;8.00;99.90;;;;;;5016291;28;20305;-80
2022/05/31 03:41:49;;;;;;;6.10;3.87;;;8.00;99.90;;;;;;5016548;28;20033;-80
2022/05/31 03:44:15;;;;;;;5.77;2.90;;;7.90;99.90;;;;;;5016373;28;20375;-81
2022/05/31 03:46:40;;;;;;;11.80;4.17;;;7.90;99.90;;;;;;5016314;28;20684;-80
2022/05/31 03:49:06;;;;;;;6.90;3.50;;;7.80;99.90;;;;;;5016290;28;20096;-80
2022/05/31 03:51:32;;;;;;;11.07;4.53;;;7.80;99.90;;;;;;5016254;28;20109;-81
2022/05/31 03:53:58;;;;;;;6.30;4.37;;;7.80;99.90;;;;;;5010855;28;20581;-80
2022/05/31 03:56:23;;;;;;;6.90;5.43;;;7.80;99.90;;;;;;5010247;28;20022;-80
2022/05/31 03:58:49;;;;;;;5.53;4.43;;;7.80;99.90;;;;;;5002080;28;20096;-80
2022/05/31 04:01:15;;;;;;;5.67;4.43;;;7.80;99.90;;;;;;5016203;28;20367;-81
2022/05/31 04:03:41;;;;;;;5.77;4.33;;;7.80;99.90;;;;;;5015707;28;20788;-81
2022/05/31 04:06:07;;;;;;;5.27;4.20;;;7.90;99.90;;;;;;5015939;28;20022;-80
2022/05/31 04:08:33;;;;;;;6.83;4.83;;;7.90;99.90;;;;;;5015493;28;20036;-80
2022/05/31 04:10:59;;;;;;;6.33;4.30;;;8.00;99.90;;;;;;5015509;28;20036;-80
2022/05/31 04:13:25;;;;;;;8.87;4.63;;;8.00;99.90;;;;;;5015871;28;20030;-80
2022/05/31 04:16:11;;;;;;;6.70;4.73;;;8.10;99.90;;;;;;5015923;28;20010;-81
2022/05/31 04:18:38;;;;;;;7.07;4.50;;;8.20;99.90;;;;;;5015732;28;20041;-80
2022/05/31 04:21:06;;;;;;;7.00;4.80;;;8.20;99.90;;;;;;5014332;28;20021;-81
2022/05/31 04:26:16;;;;;;;6.73;4.57;;;8.40;99.90;;;;;;5015875;28;20080;-81
2022/05/31 04:28:44;;;;;;;5.03;4.50;;;8.50;99.90;;;;;;5015851;28;20498;-81
2022/05/31 04:31:10;;;;;;;6.83;4.20;;;8.50;99.90;;;;;;5015688;28;20037;-81
2022/05/31 04:33:36;;;;;;;6.20;4.23;;;8.50;99.90;;;;;;5015349;28;20045;-81
2022/05/31 04:36:05;;;;;;;5.30;4.10;;;8.60;99.90;;;;;;5015646;28;20108;-81
2022/05/31 04:38:30;;;;;;;4.73;4.20;;;8.60;99.90;;;;;;5015615;28;20466;-81
2022/05/31 04:40:56;;;;;;;10.00;4.33;;;8.60;99.90;;;;;;5015640;28;20014;-81
2022/05/31 04:43:22;;;;;;;12.17;4.63;;;8.60;99.90;;;;;;5015517;28;20022;-81
2022/05/31 04:45:47;;;;;;;5.83;4.43;;;8.70;99.90;;;;;;5015813;28;20026;-82
2022/05/31 04:48:13;;;;;;;8.83;5.87;;;8.70;99.90;;;;;;5015202;28;20026;-81
2022/05/31 04:50:39;;;;;;;9.27;7.30;;;8.80;99.90;;;;;;5015031;28;20038;-81
2022/05/31 04:53:05;;;;;;;12.40;11.17;;;8.80;99.90;;;;;;5013631;28;20478;-80
2022/05/31 04:55:30;;;;;;;40.10;37.03;;;8.80;99.90;;;;;;5009308;28;20022;-80
2022/05/31 04:57:56;;;;;;;23.57;21.23;;;8.90;99.90;;;;;;5026747;28;20022;-80
2022/05/31 05:00:21;;;;;;;8.00;5.73;;;8.90;99.90;;;;;;5014323;28;20025;-80
2022/05/31 05:02:47;;;;;;;6.97;4.87;;;8.90;99.90;;;;;;5029625;28;20033;-80
2022/05/31 05:05:13;;;;;;;7.30;4.40;;;8.90;99.90;;;;;;5014325;28;20366;-80
2022/05/31 05:07:38;;;;;;;7.83;4.63;;;9.00;99.90;;;;;;5013994;28;20057;-80
2022/05/31 05:10:08;;;;;;;9.47;4.70;;;9.00;99.90;;;;;;5013743;28;20532;-80
2022/05/31 05:12:35;;;;;;;7.33;4.80;;;9.10;99.90;;;;;;5005091;28;20034;-80
2022/05/31 05:15:01;;;;;;;6.43;3.93;;;9.20;99.90;;;;;;5013397;28;20029;-81
2022/05/31 05:17:27;;;;;;;7.03;3.93;;;9.30;99.90;;;;;;5008973;28;20026;-77
2022/05/31 05:19:52;;;;;;;19.83;4.50;;;9.40;99.90;;;;;;5009969;28;20022;-77
2022/05/31 05:22:25;;;;;;;7.23;3.60;;;9.60;99.90;;;;;;5009533;28;20025;-79
2022/05/31 05:24:51;;;;;;;7.60;3.50;;;9.70;99.90;;;;;;5010770;28;20029;-79
2022/05/31 05:27:17;;;;;;;7.93;3.70;;;9.90;99.90;;;;;;5011634;28;20038;-79
2022/05/31 05:32:27;;;;;;;8.40;3.90;;;10.20;99.90;;;;;;5011745;28;20041;-79
2022/05/31 05:34:54;;;;;;;8.63;4.13;;;10.30;99.90;;;;;;5012758;28;20101;-79
2022/05/31 05:37:20;;;;;;;7.93;4.10;;;10.50;99.90;;;;;;5012868;28;20076;-79
2022/05/31 05:39:46;;;;;;;8.47;4.23;;;10.60;99.90;;;;;;5011381;28;20029;-80
2022/05/31 05:42:15;;;;;;;14.57;4.30;;;10.80;99.90;;;;;;5012265;28;20839;-81
2022/05/31 05:44:43;;;;;;;9.10;4.37;;;11.10;99.90;;;;;;5013775;28;20057;-81
2022/05/31 05:47:14;;;;;;;12.50;4.33;;;11.20;99.90;;;;;;5026565;28;20053;-81
2022/05/31 05:49:40;;;;;;;11.18;4.13;;;11.40;99.90;;;;;;5013741;28;20029;-81
2022/05/31 05:52:13;;;;;;;12.95;4.80;;;11.50;99.90;;;;;;5013659;28;20048;-81
2022/05/31 05:54:38;;;;;;;8.63;3.92;;;11.70;99.90;;;;;;5013662;28;20018;-82
2022/05/31 05:57:04;;;;;;;6.97;3.22;;;12.00;99.90;;;;;;5013649;28;20032;-81
2022/05/31 05:59:32;;;;;;;6.80;2.72;;;12.10;99.90;;;;;;5013256;28;20112;-81
2022/05/31 06:02:03;;;;;;;9.88;2.88;;;12.30;99.90;;;;;;5013533;28;20021;-81
2022/05/31 06:04:40;;;;;;;7.97;3.00;;;12.50;99.90;;;;;;5028865;28;20026;-81
2022/05/31 06:07:25;;;;;;;7.72;3.38;;;12.60;99.90;;;;;;5013080;28;20378;-81
2022/05/31 06:10:01;;;;;;;6.35;2.70;;;12.80;99.90;;;;;;5005592;28;20105;-81
2022/05/31 06:12:33;;;;;;;6.80;2.30;;;13.00;99.90;;;;;;5013591;28;20056;-81
2022/05/31 06:15:08;;;;;;;3.17;2.00;;;13.10;99.90;;;;;;5013132;28;20036;-81
2022/05/31 06:17:39;;;;;;;3.83;1.80;;;13.30;99.90;;;;;;5001526;28;20057;-80
2022/05/31 06:20:07;;;;;;;5.88;2.25;;;13.40;99.90;;;;;;5018487;28;20044;-80
2022/05/31 06:22:36;;;;;;;2.95;1.85;;;13.60;99.90;;;;;;5002350;28;20034;-80
2022/05/31 06:25:02;;;;;;;6.75;2.13;;;13.70;99.90;;;;;;5003387;28;21440;-81
2022/05/31 06:27:27;;;;;;;4.10;1.80;;;13.80;99.90;;;;;;5017820;28;20034;-80
2022/05/31 06:29:55;;;;;;;5.68;2.20;;;13.90;99.90;;;;;;5002550;28;20033;-80
2022/05/31 06:32:21;;;;;;;4.47;2.42;;;14.00;99.90;;;;;;5001931;28;20038;-80
2022/05/31 06:34:47;;;;;;;4.13;2.33;;;14.00;99.90;;;;;;5003557;28;20096;-80
2022/05/31 06:37:16;;;;;;;5.65;2.03;;;14.20;99.90;;;;;;5003400;28;20042;-81
2022/05/31 06:39:57;;;;;;;3.50;1.48;;;14.40;99.90;;;;;;4985357;28;20040;-80
2022/05/31 06:42:26;;;;;;;3.33;1.65;;;14.50;99.90;;;;;;5007109;28;20076;-80
2022/05/31 06:44:59;;;;;;;2.38;1.40;;;14.60;99.90;;;;;;5008297;28;20030;-80
2022/05/31 06:47:27;;;;;;;3.65;1.40;;;14.70;99.90;;;;;;5009081;28;20468;-80
2022/05/31 06:49:55;;;;;;;4.65;2.13;;;14.80;99.90;;;;;;5008812;28;20367;-80
2022/05/31 06:57:51;;;;;;;4.65;1.55;;;14.80;99.90;;;;;;5001739;28;20379;-74
2022/05/31 07:00:19;;;;;;;5.25;2.33;;;14.90;99.90;;;;;;5003779;28;20116;-80
2022/05/31 07:02:45;;;;;;;3.50;1.45;;;15.00;99.90;;;;;;5008008;28;20045;-82
2022/05/31 07:05:12;;;;;;;9.38;1.90;;;15.00;99.90;;;;;;5023427;28;20077;-81
2022/05/31 07:07:38;;;;;;;8.38;1.70;;;15.10;99.90;;;;;;5008525;28;20130;-81
2022/05/31 07:10:06;;;;;;;4.68;1.80;;;15.10;99.90;;;;;;5008189;28;20034;-81
2022/05/31 07:12:33;;;;;;;2.78;1.40;;;15.20;99.90;;;;;;5022260;28;20041;-81
2022/05/31 07:14:58;;;;;;;7.05;1.60;;;15.30;99.90;;;;;;5008450;28;20138;-82
2022/05/31 07:17:24;;;;;;;3.53;1.40;;;15.40;99.90;;;;;;5007526;28;20125;-81
2022/05/31 07:19:50;;;;;;;4.55;1.23;;;15.40;99.90;;;;;;5013437;28;20029;-81
2022/05/31 07:22:16;;;;;;;4.43;1.40;;;15.50;99.90;;;;;;5007399;28;20022;-81
2022/05/31 07:24:43;;;;;;;7.25;1.40;;;15.60;99.90;;;;;;5007482;28;20037;-81
2022/05/31 07:27:17;;;;;;;3.40;1.58;;;15.60;99.90;;;;;;5006912;28;20141;-81
2022/05/31 07:29:45;;;;;;;5.63;1.55;;;15.70;99.90;;;;;;5007949;28;20026;-82
2022/05/31 07:32:10;;;;;;;5.78;1.33;;;15.70;99.90;;;;;;5013964;28;20612;-79
2022/05/31 07:34:36;;;;;;;3.35;1.63;;;15.80;99.90;;;;;;5006268;28;20041;-79
2022/05/31 07:37:02;;;;;;;5.05;1.50;;;15.80;99.90;;;;;;5007872;28;20028;-81
2022/05/31 07:39:27;;;;;;;3.42;1.50;;;15.90;99.90;;;;;;5005915;28;20060;-83
2022/05/31 07:41:54;;;;;;;2.30;1.23;;;16.00;99.90;;;;;;5023716;28;20018;-82
2022/05/31 07:44:21;;;;;;;2.40;1.23;;;16.00;99.90;;;;;;5007527;28;20026;-82
2022/05/31 07:46:47;;;;;;;4.88;1.52;;;16.10;99.90;;;;;;5009632;28;20018;-82
2022/05/31 07:49:13;;;;;;;4.60;1.65;;;16.20;99.90;;;;;;5008416;28;20026;-82
2022/05/31 07:51:39;;;;;;;3.97;1.42;;;16.30;99.90;;;;;;5015014;28;20117;-82
2022/05/31 07:54:05;;;;;;;3.58;1.58;;;16.30;99.90;;;;;;5007052;28;20497;-82
2022/05/31 07:56:31;;;;;;;2.65;1.45;;;16.40;99.90;;;;;;5017770;28;20041;-82
2022/05/31 07:58:56;;;;;;;4.10;1.50;;;16.40;99.90;;;;;;5011541;28;20034;-82
2022/05/31 08:01:25;;;;;;;11.73;1.83;;;16.50;99.90;;;;;;5011867;28;20482;-82
2022/05/31 08:03:52;;;;;;;4.05;1.80;;;16.60;99.90;;;;;;5010185;28;21406;-82
2022/05/31 08:06:20;;;;;;;3.42;1.50;;;16.60;99.90;;;;;;5025828;28;20033;-82
2022/05/31 08:08:46;;;;;;;3.45;1.40;;;16.70;99.90;;;;;;5009767;28;20532;-82
2022/05/31 08:11:13;;;;;;;5.53;1.60;;;16.80;99.90;;;;;;5012215;28;20133;-82
2022/05/31 08:13:40;;;;;;;3.35;1.40;;;16.90;99.90;;;;;;5013726;28;20109;-82
2022/05/31 08:16:08;;;;;;;5.00;1.83;;;17.00;99.90;;;;;;5015447;28;20029;-82
2022/05/31 08:18:35;;;;;;;4.78;1.73;;;17.00;99.90;;;;;;5013520;28;20053;-82
2022/05/31 08:21:02;;;;;;;4.88;1.50;;;17.10;99.90;;;;;;5015498;28;20024;-76
2022/05/31 08:23:28;;;;;;;3.25;1.17;;;17.20;99.90;;;;;;5014976;28;20030;-76
2022/05/31 08:25:54;;;;;;;4.30;1.33;;;17.30;99.90;;;;;;5015021;28;20033;-75
2022/05/31 08:28:21;;;;;;;2.22;1.27;;;17.30;99.90;;;;;;5015590;28;20026;-75
2022/05/31 08:30:49;;;;;;;5.97;1.88;;;17.30;99.90;;;;;;5015483;28;20544;-75
2022/05/31 08:33:15;;;;;;;4.38;1.50;;;17.40;99.90;;;;;;5015505;28;20026;-75
2022/05/31 08:35:41;;;;;;;5.40;1.70;;;17.50;99.90;;;;;;5015833;28;20025;-76
2022/05/31 08:38:06;;;;;;;3.38;1.20;;;17.60;99.90;;;;;;5004249;28;20061;-75
2022/05/31 08:40:42;;;;;;;6.85;1.52;;;17.70;99.90;;;;;;5010722;28;20087;-75
2022/05/31 08:43:15;;;;;;;3.97;1.40;;;17.70;99.90;;;;;;5015182;28;20025;-75
2022/05/31 08:45:50;;;;;;;3.63;1.35;;;17.80;99.90;;;;;;5014172;28;20026;-74
2022/05/31 08:48:29;;;;;;;;;;;17.90;99.90;;;;;;5010345;28;20044;-72
2022/05/31 08:57:08;;;;;;;2.63;1.25;;;18.10;99.90;;;;;;5012432;28;20037;-74
2022/05/31 08:59:41;;;;;;;2.42;1.00;;;18.20;99.90;;;;;;5011221;28;20441;-75
2022/05/31 09:02:39;;;;;;;3.85;1.05;;;18.30;99.90;;;;;;5013150;28;20018;-74
2022/05/31 09:05:24;;;;;;;1.73;1.10;;;18.40;99.90;;;;;;5002148;28;20062;-74
2022/05/31 09:08:11;;;;;;;3.80;1.10;;;18.50;99.90;;;;;;5007984;28;20038;-75
2022/05/31 09:10:42;;;;;;;3.60;1.08;;;18.60;99.90;;;;;;5009189;28;20137;-75
2022/05/31 09:13:18;;;;;;;3.80;1.30;;;18.90;99.90;;;;;;5008909;28;20433;-75
2022/05/31 09:15:50;;;;;;;3.47;1.38;;;18.90;99.90;;;;;;5009648;28;20050;-75
2022/05/31 09:18:26;;;;;;;3.50;1.15;;;19.00;99.90;;;;;;5009042;28;20042;-75
2022/05/31 09:20:58;;;;;;;3.58;1.30;;;19.10;99.90;;;;;;5008908;28;20022;-75
2022/05/31 09:23:28;;;;;;;4.03;1.10;;;19.10;99.90;;;;;;5008367;28;20041;-75
2022/05/31 09:26:26;;;;;;;2.97;1.45;;;19.30;99.90;;;;;;5008225;28;20030;-75
2022/05/31 09:29:00;;;;;;;2.85;1.20;;;19.60;99.90;;;;;;4997685;28;20081;-75
2022/05/31 09:31:44;;;;;;;3.25;1.10;;;19.80;99.90;;;;;;5009276;28;20025;-75
2022/05/31 09:34:32;;;;;;;5.22;1.33;;;20.10;99.90;;;;;;5011265;28;20056;-75
2022/05/31 09:37:31;;;;;;;2.15;1.30;;;20.40;99.90;;;;;;5009992;28;20026;-75
2022/05/31 09:40:06;;;;;;;2.05;1.35;;;20.80;99.90;;;;;;4999346;28;20041;-75
2022/05/31 09:42:36;;;;;;;;;;;21.10;99.90;;;;;;5006365;28;20753;-75
2022/05/31 09:45:11;;;;;;;4.70;1.45;;;21.30;99.90;;;;;;4996746;28;20262;-75
2022/05/31 09:47:36;;;;;;;;;;;21.60;99.90;;;;;;5008602;28;20084;-73
2022/05/31 09:50:02;;;;;;;6.45;1.67;;;21.90;99.90;;;;;;5008310;28;19913;-74
2022/05/31 09:52:42;;;;;;;4.13;1.27;;;22.30;99.90;;;;;;5007852;28;20458;-74
2022/05/31 09:58:38;;;;;;;2.80;1.20;;;22.60;99.90;;;;;;4966583;28;20086;-74
2022/05/31 10:01:26;;;;;;;3.25;1.05;;;22.90;99.40;;;;;;4957651;28;20073;-74
2022/05/31 10:03:55;;;;;;;2.47;1.10;;;23.10;98.30;;;;;;4988644;28;20147;-74
2022/05/31 10:06:30;;;;;;;4.45;0.98;;;23.40;99.30;;;;;;5006691;28;20391;-74
2022/05/31 10:08:56;;;;;;;4.55;1.20;;;23.40;97.00;;;;;;4998384;28;20030;-74
2022/05/31 10:11:28;;;;;;;2.22;1.20;;;23.70;97.10;;;;;;5006989;28;20033;-74
2022/05/31 10:14:03;;;;;;;3.55;1.35;;;23.70;96.70;;;;;;5006460;28;20030;-75
2022/05/31 10:16:31;;;;;;;3.13;1.20;;;23.60;99.90;;;;;;5007929;28;20034;-74
2022/05/31 10:19:06;;;;;;;4.35;1.20;;;23.60;99.10;;;;;;5007895;28;20054;-79
2022/05/31 10:21:31;;;;;;;5.22;1.40;;;23.80;96.00;;;;;;5010992;28;20030;-74
2022/05/31 10:24:15;;;;;;;3.92;1.02;;;23.90;96.60;;;;;;5011701;28;20033;-74
2022/05/31 10:26:42;;;;;;;3.42;1.15;;;23.90;97.70;;;;;;5011599;28;20470;-74
2022/05/31 10:29:12;;;;;;;2.95;1.33;;;23.80;96.20;;;;;;5010842;28;20034;-74
2022/05/31 10:31:41;;;;;;;2.97;1.05;;;23.80;96.40;;;;;;5011333;28;20030;-74
2022/05/31 10:34:34;;;;;;;4.55;1.73;;;23.90;96.00;;;;;;5011107;28;20029;-74
2022/05/31 10:37:01;;;;;;;4.47;1.30;;;24.20;94.90;;;;;;5010974;28;20097;-74
2022/05/31 10:39:36;;;;;;;1.33;1.00;;;24.30;93.90;;;;;;5010832;28;20173;-74
2022/05/31 10:42:06;;;;;;;3.40;1.02;;;24.60;96.10;;;;;;5009302;28;20068;-74
2022/05/31 10:44:50;;;;;;;7.18;1.20;;;24.70;95.90;;;;;;5009139;28;20042;-73
2022/05/31 10:47:18;;;;;;;3.80;1.02;;;24.70;92.80;;;;;;5008680;28;20511;-74
2022/05/31 10:49:45;;;;;;;4.72;1.20;;;24.90;92.30;;;;;;5010384;28;20030;-74
2022/05/31 10:52:37;;;;;;;6.28;1.25;;;24.70;91.40;;;;;;5009049;28;20022;-74
2022/05/31 10:55:06;;;;;;;4.95;1.55;;;24.40;93.80;;;;;;5004187;28;20122;-74
2022/05/31 10:57:56;;;;;;;3.53;1.48;;;24.30;91.00;;;;;;5010444;28;20491;-73
2022/05/31 11:00:36;;;;;;;3.03;1.30;;;24.20;92.00;;;;;;5009524;28;20109;-74
2022/05/31 11:03:39;;;;;;;2.78;1.30;;;24.10;92.30;;;;;;4994951;28;20034;-73
2022/05/31 11:06:13;;;;;;;2.85;1.40;;;24.30;91.40;;;;;;4994762;28;20037;-73
2022/05/31 11:12:28;;;;;;;4.32;1.30;;;24.70;90.70;;;;;;5009083;28;20052;-73
2022/05/31 11:15:10;;;;;;;4.07;1.33;;;24.50;90.30;;;;;;4998214;28;20046;-73
2022/05/31 11:18:15;;;;;;;5.57;1.33;;;24.40;90.00;;;;;;5000954;28;20064;-73
2022/05/31 11:20:41;;;;;;;1.60;1.13;;;24.40;90.40;;;;;;5006281;28;20037;-74
2022/05/31 11:23:44;;;;;;;6.65;1.40;;;24.60;90.30;;;;;;5005508;28;20030;-74
2022/05/31 11:26:42;;;;;;;4.00;1.38;;;24.80;90.20;;;;;;5004881;28;20034;-75
2022/05/31 11:29:38;;;;;;;4.47;1.70;;;24.90;90.10;;;;;;5008353;28;20509;-75
2022/05/31 11:32:14;;;;;;;3.25;1.33;;;25.10;89.00;;;;;;5010970;28;20034;-75
2022/05/31 11:35:01;;;;;;;4.45;1.20;;;25.00;90.10;;;;;;5011104;28;20030;-75
2022/05/31 11:37:43;;;;;;;3.10;1.20;;;24.70;88.00;;;;;;5011243;28;20033;-75
2022/05/31 11:40:46;;;;;;;2.47;1.10;;;24.80;90.80;;;;;;5006138;28;20030;-75
2022/05/31 11:43:41;;;;;;;4.40;1.27;;;25.30;91.30;;;;;;4996909;28;20057;-74
2022/05/31 11:46:07;;;;;;;;;;;25.80;90.30;;;;;;5006470;28;20030;-74
2022/05/31 11:48:50;;;;;;;3.88;1.23;;;26.20;89.50;;;;;;5004984;28;20279;-74
2022/05/31 11:51:32;;;;;;;2.95;1.33;;;26.60;89.30;;;;;;5019260;28;20026;-74
2022/05/31 11:54:11;;;;;;;3.70;1.33;;;26.60;87.00;;;;;;5000682;28;20186;-74
2022/05/31 11:57:05;;;;;;;3.42;1.75;;;26.40;88.90;;;;;;5005054;28;20030;-74
2022/05/31 11:59:40;;;;;;;5.30;1.50;;;26.00;87.50;;;;;;5004109;28;20036;-75
2022/05/31 12:02:34;;;;;;;3.53;1.30;;;25.50;87.10;;;;;;5010476;28;20104;-74
2022/05/31 12:05:14;;;;;;;4.45;1.40;;;25.00;86.70;;;;;;5004168;28;20049;-73
2022/05/31 12:08:03;;;;;;;3.92;1.38;;;24.60;87.80;;;;;;5010465;28;20050;-74
2022/05/31 12:10:33;;;;;;;5.28;1.30;;;24.60;91.60;;;;;;5001402;28;20099;-74
2022/05/31 12:13:04;;;;;;;4.38;1.27;;;24.40;89.20;;;;;;5011002;28;20033;-74
2022/05/31 12:15:33;;;;;;;2.95;1.10;;;24.50;91.10;;;;;;5009229;28;20022;-74
2022/05/31 12:18:27;;;;;;;4.65;1.17;;;24.50;91.10;;;;;;5010414;28;20066;-74
2022/05/31 12:21:15;;;;;;;2.78;1.30;;;24.50;90.30;;;;;;4989106;28;20095;-74
2022/05/31 12:23:49;;;;;;;3.75;1.25;;;24.40;91.90;;;;;;5010366;28;20033;-74
2022/05/31 12:26:41;;;;;;;5.40;1.33;;;24.20;92.40;;;;;;5016005;28;20036;-74
2022/05/31 12:29:33;;;;;;;2.72;1.30;;;24.30;92.50;;;;;;5009782;28;20029;-74
2022/05/31 12:32:20;;;;;;;6.90;1.35;;;24.50;90.90;;;;;;5006944;28;20461;-75
2022/05/31 12:34:46;;;;;;;2.63;1.20;;;24.70;91.10;;;;;;5010807;28;20584;-75
2022/05/31 12:37:14;;;;;;;2.83;1.08;;;25.10;89.80;;;;;;5011962;28;20069;-75
2022/05/31 12:39:41;;;;;;;2.80;1.40;;;25.40;85.00;;;;;;5011270;28;20028;-75
2022/05/31 12:42:13;;;;;;;3.53;1.40;;;25.40;86.50;;;;;;5010967;28;20026;-75
2022/05/31 12:44:44;;;;;;;5.25;1.30;;;25.20;86.20;;;;;;5011837;28;20026;-75
2022/05/31 12:47:19;;;;;;;4.65;1.40;;;24.80;87.80;;;;;;5011882;28;20022;-75
2022/05/31 12:49:55;;;;;;;15.85;1.80;;;24.70;89.80;;;;;;5011651;28;20026;-75
2022/05/31 12:55:36;;;;;;;4.57;1.30;;;24.70;89.50;;;;;;5011825;28;20026;-75
2022/05/31 12:58:26;;;;;;;5.20;1.08;;;25.00;89.80;;;;;;5011753;28;20080;-75
2022/05/31 13:00:55;;;;;;;3.13;1.33;;;25.00;88.10;;;;;;5010899;28;20022;-75
2022/05/31 13:03:32;;;;;;;5.10;1.30;;;24.80;89.40;;;;;;5011405;28;20101;-75
2022/05/31 13:06:04;;;;;;;4.20;1.58;;;24.60;85.30;;;;;;5011537;28;20065;-75
2022/05/31 13:08:49;;;;;;;1.85;1.10;;;24.40;85.80;;;;;;5013056;28;20088;-75
2022/05/31 13:20:40;;;;;;;7.05;1.30;;;23.70;91.10;;;;;;5012163;28;20044;-74
2022/05/31 13:23:14;;;;;;;4.60;1.35;;;23.50;90.30;;;;;;5009455;28;20041;-74
2022/05/31 13:25:51;;;;;;;6.22;1.75;;;23.20;91.10;;;;;;5011539;28;20446;-74
2022/05/31 13:28:35;;;;;;;2.88;1.40;;;23.10;91.40;;;;;;5012289;28;20101;-73
2022/05/31 13:31:19;;;;;;;4.60;1.45;;;22.70;95.60;;;;;;5011849;28;20034;-73
2022/05/31 13:33:55;;;;;;;5.95;1.40;;;22.50;96.10;;;;;;5011235;28;20471;-73
2022/05/31 13:36:29;;;;;;;5.88;1.48;;;22.30;93.20;;;;;;5012346;28;20033;-73
2022/05/31 13:39:02;;;;;;;2.50;1.38;;;22.20;94.30;;;;;;5011806;28;20410;-74
2022/05/31 13:41:29;;;;;;;3.45;1.40;;;22.10;95.90;;;;;;5027449;28;20383;-74
2022/05/31 13:43:57;;;;;;;7.22;1.63;;;21.90;95.60;;;;;;5012875;28;20037;-74
2022/05/31 13:46:28;;;;;;;3.15;1.20;;;21.80;95.40;;;;;;5012562;28;20049;-74
2022/05/31 13:49:00;;;;;;;3.75;1.70;;;21.60;93.70;;;;;;5012592;28;20026;-74